Flight Track Log - Related Links

Times and Time Zones

All times are in EDT time to prevent confusion due to time zone crossing. See the AAL2360 flight status page for this flight to view local times or setup timezone preferences in your user account.


Time Position Orientation Groundspeed Altitude Reporting Facility
EDT Latitude Longitude Course Direction KTS MPH feet Rate Location/Type
Mon 03:36:18 PM 32.8833 -97.0333 357° North 190 219 1,000  Level Dallas / Fort Worth TRACON
Mon 03:38:00 PM 32.8545 -96.8000 North  Level FlightAware Approximate
Mon 03:38:00 PM 32.7833 -96.9833 157° South 251 289 5,100  Level Dallas / Fort Worth TRACON
Mon 03:38:54 PM 32.8167 -96.9333 52° Northeast 247 284 7,500 2,143 Climbing Dallas / Fort Worth TRACON
Mon 03:39:00 PM 32.9743 -96.8000 North  Level FlightAware Approximate
Mon 03:40:00 PM 33.0941 -96.8019 357° North  Level FlightAware Approximate
Mon 03:41:00 PM 33.2137 -96.8105 357° North  Level FlightAware Approximate
Mon 03:41:16 PM 33.0119 -96.8908 10° North 319 367 12,100  Level Fort Worth Center
Mon 03:42:16 PM 33.1100 -96.8778 North 340 391 14,700 2,450 Climbing Fort Worth Center
Mon 03:43:16 PM 33.2206 -96.8597 North 377 434 17,000 2,200 Climbing Fort Worth Center
Mon 03:44:16 PM 33.3206 -96.8442 North 399 459 19,100 1,950 Climbing Fort Worth Center
Mon 03:45:16 PM 33.4478 -96.8233 North 409 471 20,900 1,750 Climbing Fort Worth Center
Mon 03:46:16 PM 33.5456 -96.7631 27° Northeast 418 481 22,600 1,700 Climbing Fort Worth Center
Mon 03:47:16 PM 33.6703 -96.6822 28° Northeast 443 510 24,300 1,700 Climbing Fort Worth Center
Mon 03:48:16 PM 33.7847 -96.6089 28° Northeast 449 517 26,000 1,650 Climbing Fort Worth Center
Mon 03:49:16 PM 33.9011 -96.5375 27° Northeast 454 522 27,600 1,500 Climbing Fort Worth Center
Mon 03:50:16 PM 34.0153 -96.4589 30° Northeast 459 528 29,000 700 Climbing Fort Worth Center
Mon 03:51:16 PM 34.1128 -96.3900 30° Northeast 459 528 29,000  Level Fort Worth Center
Mon 03:52:16 PM 34.2350 -96.2881 35° Northeast 459 528 29,000  Level Fort Worth Center
Mon 03:53:16 PM 34.3469 -96.1986 33° Northeast 470 541 29,000  Level Fort Worth Center
Mon 03:54:16 PM 34.4544 -96.1064 35° Northeast 475 547 29,000  Level Fort Worth Center
Mon 03:55:16 PM 34.5642 -96.0189 33° Northeast 475 547 29,000  Level Fort Worth Center
Mon 03:56:16 PM 34.6736 -95.9289 34° Northeast 475 547 29,000  Level Fort Worth Center
Mon 03:57:16 PM 34.7831 -95.8358 35° Northeast 475 547 29,000  Level Fort Worth Center
Mon 03:58:16 PM 34.8719 -95.7608 35° Northeast 475 547 29,000  Level Fort Worth Center
Mon 04:00:08 PM 35.0778 -95.5686 37° Northeast 476 548 29,000  Level Memphis Center
Mon 04:01:08 PM 35.1822 -95.4686 38° Northeast 470 541 29,000  Level Memphis Center
Mon 04:02:08 PM 35.2883 -95.3708 37° Northeast 475 547 29,000  Level Memphis Center
Mon 04:03:08 PM 35.3922 -95.2725 38° Northeast 475 547 29,000  Level Memphis Center
Mon 04:04:08 PM 35.4964 -95.1717 38° Northeast 475 547 29,000  Level Memphis Center
Mon 04:05:08 PM 35.6003 -95.0703 38° Northeast 475 547 29,000  Level Memphis Center
Mon 04:06:18 PM 35.7283 -94.9475 38° Northeast 482 555 29,000  Level Kansas City Center
Mon 04:07:08 PM 35.8144 -94.8675 37° Northeast 480 552 29,000  Level Memphis Center
Mon 04:08:08 PM 35.9181 -94.7656 39° Northeast 480 552 29,000  Level Memphis Center
Mon 04:09:08 PM 36.0239 -94.6633 38° Northeast 480 552 29,000  Level Memphis Center
Mon 04:10:08 PM 36.1294 -94.5586 39° Northeast 480 552 29,000  Level Memphis Center
Mon 04:10:26 PM 36.1703 -94.5178 39° Northeast 487 560 29,000  Level Kansas City Center
Mon 04:11:28 PM 36.2769 -94.4133 38° Northeast 489 563 29,000  Level Kansas City Center
Mon 04:12:08 PM 36.3450 -94.3481 38° Northeast 480 552 29,000  Level Memphis Center
Mon 04:12:30 PM 36.3831 -94.3089 40° Northeast 489 563 29,000  Level Kansas City Center
Mon 04:13:32 PM 36.4889 -94.2050 38° Northeast 487 560 29,000  Level Kansas City Center
Mon 04:14:34 PM 36.5956 -94.1003 38° Northeast 487 560 29,000  Level Kansas City Center
Mon 04:15:36 PM 36.7233 -93.9725 39° Northeast 490 564 29,000  Level Kansas City Center
Mon 04:16:38 PM 36.8303 -93.8656 39° Northeast 492 566 29,000  Level Kansas City Center
Mon 04:17:40 PM 36.9325 -93.7622 39° Northeast 489 563 29,000  Level Kansas City Center
Mon 04:18:42 PM 37.0386 -93.6547 39° Northeast 488 562 29,000  Level Kansas City Center
Mon 04:19:44 PM 37.1442 -93.5492 39° Northeast 485 558 29,000  Level Kansas City Center
Mon 04:20:47 PM 37.2489 -93.4428 39° Northeast 484 557 29,000  Level Kansas City Center
Mon 04:21:49 PM 37.3742 -93.3142 39° Northeast 483 556 29,000  Level Kansas City Center
Mon 04:22:51 PM 37.4831 -93.2158 36° Northeast 481 554 29,000  Level Kansas City Center
Mon 04:23:53 PM 37.5914 -93.1178 36° Northeast 477 549 29,000  Level Kansas City Center
Mon 04:24:55 PM 37.6981 -93.0178 37° Northeast 476 548 29,000  Level Kansas City Center
Mon 04:25:57 PM 37.8050 -92.9178 36° Northeast 476 548 29,000  Level Kansas City Center
Mon 04:26:59 PM 37.9128 -92.8181 36° Northeast 476 548 29,000  Level Kansas City Center
Mon 04:28:01 PM 38.0286 -92.7089 37° Northeast 472 543 29,000  Level Kansas City Center
Mon 04:29:03 PM 38.1353 -92.6103 36° Northeast 474 545 29,000  Level Kansas City Center
Mon 04:30:05 PM 38.2547 -92.4978 36° Northeast 467 537 29,000  Level Kansas City Center
Mon 04:31:07 PM 38.3592 -92.3972 37° Northeast 466 536 29,000  Level Kansas City Center
Mon 04:32:09 PM 38.4639 -92.2983 36° Northeast 465 535 29,000  Level Kansas City Center
Mon 04:33:11 PM 38.5686 -92.1975 37° Northeast 466 536 29,000  Level Kansas City Center
Mon 04:34:13 PM 38.6742 -92.0950 37° Northeast 471 542 29,000  Level Kansas City Center
Mon 04:35:15 PM 38.7789 -91.9944 37° Northeast 469 540 29,000  Level Kansas City Center
Mon 04:36:17 PM 38.8811 -91.8944 37° Northeast 464 534 29,000  Level Kansas City Center
Mon 04:37:19 PM 38.9869 -91.7933 37° Northeast 469 540 29,000  Level Kansas City Center
Mon 04:38:21 PM 39.0908 -91.6925 37° Northeast 463 533 29,000  Level Kansas City Center
Mon 04:39:23 PM 39.2142 -91.5719 37° Northeast 463 533 29,000  Level Kansas City Center
Mon 04:40:25 PM 39.3178 -91.4697 37° Northeast 466 536 29,000  Level Kansas City Center
Mon 04:41:27 PM 39.4217 -91.3681 37° Northeast 468 539 29,000  Level Kansas City Center
Mon 04:42:29 PM 39.5228 -91.2675 37° Northeast 463 533 29,000  Level Kansas City Center
Mon 04:43:31 PM 39.6244 -91.1656 38° Northeast 461 531 29,000  Level Kansas City Center
Mon 04:44:33 PM 39.7264 -91.0642 37° Northeast 461 531 29,000  Level Kansas City Center
Mon 04:45:35 PM 39.8328 -90.9592 37° Northeast 459 528 29,000  Level Kansas City Center
Mon 04:46:37 PM 39.9356 -90.8553 38° Northeast 465 535 29,000  Level Kansas City Center
Mon 04:47:39 PM 40.0561 -90.7325 38° Northeast 460 529 29,000  Level Kansas City Center
Mon 04:48:41 PM 40.1572 -90.6289 38° Northeast 460 529 29,000  Level Kansas City Center
Mon 04:49:43 PM 40.2583 -90.5278 37° Northeast 459 528 29,000  Level Kansas City Center
Mon 04:50:45 PM 40.3586 -90.4247 38° Northeast 457 526 29,000  Level Kansas City Center
Mon 04:51:22 PM 40.4194 -90.3619 38° Northeast 460 529 29,000  Level Chicago Center
Mon 04:52:24 PM 40.5217 -90.2564 38° Northeast 464 534 29,000  Level Chicago Center
Mon 04:53:26 PM 40.6197 -90.1497 40° Northeast 457 526 29,000  Level Chicago Center
Mon 04:54:28 PM 40.7453 -90.0275 36° Northeast 465 535 29,000 -290 Level Chicago Center
Mon 04:55:30 PM 40.8461 -89.9239 38° Northeast 461 531 28,400 -968 Descending Chicago Center
Mon 04:56:32 PM 40.9433 -89.8192 39° Northeast 453 521 27,000 -1,548 Descending Chicago Center
Mon 04:57:34 PM 41.0489 -89.7069 39° Northeast 448 516 25,200 -1,452 Descending Chicago Center
Mon 04:58:36 PM 41.1444 -89.6067 38° Northeast 439 505 24,000 -1,548 Descending Chicago Center
Mon 04:59:38 PM 41.2097 -89.4686 58° Northeast 442 509 22,000 -2,081 Descending Chicago Center
Mon 05:00:40 PM 41.2664 -89.3283 62° Northeast 433 498 19,700 -2,274 Descending Chicago Center
Mon 05:01:42 PM 41.3231 -89.1819 63° Northeast 411 473 17,300 -2,304 Descending Chicago Center
Mon 05:02:45 PM 41.3756 -89.0539 61° Northeast 397 457 14,900 -2,160 Descending Chicago Center
Mon 05:03:47 PM 41.4242 -88.9281 63° Northeast 385 443 12,800 -1,742 Descending Chicago Center
Mon 05:04:49 PM 41.4728 -88.8089 61° Northeast 371 427 11,300 -871 Descending Chicago Center
Mon 05:05:51 PM 41.5289 -88.6656 62° Northeast 366 421 11,000 -145 Descending Chicago Center
Mon 05:06:53 PM 41.5708 -88.5611 62° Northeast 323 372 11,000 -290 Level Chicago Center
Mon 05:07:55 PM 41.6117 -88.4639 61° Northeast 303 349 10,400 -1,016 Descending Chicago Center
Mon 05:08:57 PM 41.6628 -88.3789 51° Northeast 294 338 8,900 -1,452 Descending Chicago Center
Mon 05:09:59 PM 41.7361 -88.3606 56° Northeast 276 318 7,400 -1,016 Descending Chicago Center
Mon 05:11:00 PM 41.7985 -88.1029 56° Northeast  Level FlightAware Approximate
Mon 05:11:01 PM 41.8081 -88.3478 North 263 303 6,800  Level Chicago Center
Mon 05:12:03 PM 41.8911 -88.3303 North 256 295 4,900 -1,355 Descending Chicago Center
Mon 05:13:05 PM 41.9317 -88.2519 55° Northeast 262 302 4,000 -432 Descending Chicago Center
Mon 05:14:08 PM 41.9633 -88.1747 61° Northeast 251 289 4,000  Level Chicago Center

Login

Don't have an account? Register now (free) for customized features, flight alerts, and more!